sensor_id;sensor_type;location;lat;lon;timestamp;temperature;humidity
18083;DHT22;9168;51.194;6.840;2023-05-29T00:00:41;16.10;99.90
18083;DHT22;9168;51.194;6.840;2023-05-29T00:03:09;16.10;99.90
18083;DHT22;9168;51.194;6.840;2023-05-29T00:05:38;16.00;99.90
18083;DHT22;9168;51.194;6.840;2023-05-29T00:08:05;16.00;99.90
18083;DHT22;9168;51.194;6.840;2023-05-29T00:10:32;15.90;99.90
18083;DHT22;9168;51.194;6.840;2023-05-29T00:12:59;15.90;99.90
18083;DHT22;9168;51.194;6.840;2023-05-29T00:15:28;15.90;99.90
18083;DHT22;9168;51.194;6.840;2023-05-29T00:17:55;15.90;99.90
18083;DHT22;9168;51.194;6.840;2023-05-29T00:20:22;15.90;99.90
18083;DHT22;9168;51.194;6.840;2023-05-29T00:22:51;15.90;99.90
18083;DHT22;9168;51.194;6.840;2023-05-29T00:25:18;15.90;99.90
18083;DHT22;9168;51.194;6.840;2023-05-29T00:27:45;15.90;99.90
18083;DHT22;9168;51.194;6.840;2023-05-29T00:30:12;15.90;99.90
18083;DHT22;9168;51.194;6.840;2023-05-29T00:32:39;15.80;99.90
18083;DHT22;9168;51.194;6.840;2023-05-29T00:35:07;15.80;99.90
18083;DHT22;9168;51.194;6.840;2023-05-29T00:37:34;15.70;99.90
18083;DHT22;9168;51.194;6.840;2023-05-29T00:40:02;15.70;99.90
18083;DHT22;9168;51.194;6.840;2023-05-29T00:42:30;15.70;99.90
18083;DHT22;9168;51.194;6.840;2023-05-29T00:44:56;15.70;99.90
18083;DHT22;9168;51.194;6.840;2023-05-29T00:47:24;15.70;99.90
18083;DHT22;9168;51.194;6.840;2023-05-29T00:49:51;15.70;99.90
18083;DHT22;9168;51.194;6.840;2023-05-29T00:52:20;15.70;99.90
18083;DHT22;9168;51.194;6.840;2023-05-29T00:54:47;15.70;99.90
18083;DHT22;9168;51.194;6.840;2023-05-29T00:57:16;15.70;99.90
18083;DHT22;9168;51.194;6.840;2023-05-29T00:59:44;15.60;99.90
18083;DHT22;9168;51.194;6.840;2023-05-29T01:02:12;15.60;99.90
18083;DHT22;9168;51.194;6.840;2023-05-29T01:04:42;15.50;99.90
18083;DHT22;9168;51.194;6.840;2023-05-29T01:07:09;15.50;99.90
18083;DHT22;9168;51.194;6.840;2023-05-29T01:09:36;15.50;99.90
18083;DHT22;9168;51.194;6.840;2023-05-29T01:12:08;15.40;99.90
18083;DHT22;9168;51.194;6.840;2023-05-29T01:14:48;15.40;99.90
18083;DHT22;9168;51.194;6.840;2023-05-29T01:17:21;15.40;99.90
18083;DHT22;9168;51.194;6.840;2023-05-29T01:20:05;15.30;99.90
18083;DHT22;9168;51.194;6.840;2023-05-29T01:22:53;15.30;99.90
18083;DHT22;9168;51.194;6.840;2023-05-29T01:25:24;15.30;99.90
18083;DHT22;9168;51.194;6.840;2023-05-29T01:27:58;15.30;99.90
18083;DHT22;9168;51.194;6.840;2023-05-29T01:30:28;15.20;99.90
18083;DHT22;9168;51.194;6.840;2023-05-29T01:32:56;15.20;99.90
18083;DHT22;9168;51.194;6.840;2023-05-29T01:35:24;15.20;99.90
18083;DHT22;9168;51.194;6.840;2023-05-29T01:37:51;15.20;99.90
18083;DHT22;9168;51.194;6.840;2023-05-29T01:40:17;15.10;99.90
18083;DHT22;9168;51.194;6.840;2023-05-29T01:42:45;15.10;99.90
18083;DHT22;9168;51.194;6.840;2023-05-29T01:45:13;15.10;99.90
18083;DHT22;9168;51.194;6.840;2023-05-29T01:47:42;15.10;99.90
18083;DHT22;9168;51.194;6.840;2023-05-29T01:50:11;15.00;99.90
18083;DHT22;9168;51.194;6.840;2023-05-29T01:52:39;14.90;99.90
18083;DHT22;9168;51.194;6.840;2023-05-29T01:55:07;14.90;99.90
18083;DHT22;9168;51.194;6.840;2023-05-29T01:57:35;14.90;99.90
18083;DHT22;9168;51.194;6.840;2023-05-29T02:00:03;14.80;99.90
18083;DHT22;9168;51.194;6.840;2023-05-29T02:02:37;14.90;99.90
18083;DHT22;9168;51.194;6.840;2023-05-29T02:05:05;14.90;99.90
18083;DHT22;9168;51.194;6.840;2023-05-29T02:07:32;14.80;99.90
18083;DHT22;9168;51.194;6.840;2023-05-29T02:09:59;14.90;99.90
18083;DHT22;9168;51.194;6.840;2023-05-29T02:12:26;14.90;99.90
18083;DHT22;9168;51.194;6.840;2023-05-29T02:14:53;14.80;99.90
18083;DHT22;9168;51.194;6.840;2023-05-29T02:17:19;14.80;99.90
18083;DHT22;9168;51.194;6.840;2023-05-29T02:19:48;14.80;99.90
18083;DHT22;9168;51.194;6.840;2023-05-29T02:22:16;14.70;99.90
18083;DHT22;9168;51.194;6.840;2023-05-29T02:24:43;14.70;99.90
18083;DHT22;9168;51.194;6.840;2023-05-29T02:27:10;14.70;99.90
18083;DHT22;9168;51.194;6.840;2023-05-29T02:29:37;14.60;99.90
18083;DHT22;9168;51.194;6.840;2023-05-29T02:32:04;14.60;99.90
18083;DHT22;9168;51.194;6.840;2023-05-29T02:34:31;14.60;99.90
18083;DHT22;9168;51.194;6.840;2023-05-29T02:37:00;14.50;99.90
18083;DHT22;9168;51.194;6.840;2023-05-29T02:39:26;14.40;99.90
18083;DHT22;9168;51.194;6.840;2023-05-29T02:41:53;14.40;99.90
18083;DHT22;9168;51.194;6.840;2023-05-29T02:44:20;14.40;99.90
18083;DHT22;9168;51.194;6.840;2023-05-29T02:46:47;14.30;99.90
18083;DHT22;9168;51.194;6.840;2023-05-29T02:49:14;14.30;99.90
18083;DHT22;9168;51.194;6.840;2023-05-29T02:51:41;14.30;99.90
18083;DHT22;9168;51.194;6.840;2023-05-29T02:54:09;14.30;99.90
18083;DHT22;9168;51.194;6.840;2023-05-29T02:56:37;14.30;99.90
18083;DHT22;9168;51.194;6.840;2023-05-29T02:59:04;14.20;99.90
18083;DHT22;9168;51.194;6.840;2023-05-29T03:01:31;14.20;99.90
18083;DHT22;9168;51.194;6.840;2023-05-29T03:03:59;14.10;99.90
18083;DHT22;9168;51.194;6.840;2023-05-29T03:06:26;14.10;99.90
18083;DHT22;9168;51.194;6.840;2023-05-29T03:08:53;14.00;99.90
18083;DHT22;9168;51.194;6.840;2023-05-29T03:11:21;13.90;99.90
18083;DHT22;9168;51.194;6.840;2023-05-29T03:13:50;13.90;99.90
18083;DHT22;9168;51.194;6.840;2023-05-29T03:16:17;13.80;99.90
18083;DHT22;9168;51.194;6.840;2023-05-29T03:18:44;13.80;99.90
18083;DHT22;9168;51.194;6.840;2023-05-29T03:21:10;13.80;99.90
18083;DHT22;9168;51.194;6.840;2023-05-29T03:23:37;13.70;99.90
18083;DHT22;9168;51.194;6.840;2023-05-29T03:26:04;13.70;99.90
18083;DHT22;9168;51.194;6.840;2023-05-29T03:28:33;13.70;99.90
18083;DHT22;9168;51.194;6.840;2023-05-29T03:31:00;13.70;99.90
18083;DHT22;9168;51.194;6.840;2023-05-29T03:33:27;13.70;99.90
18083;DHT22;9168;51.194;6.840;2023-05-29T03:35:54;13.60;99.90
18083;DHT22;9168;51.194;6.840;2023-05-29T03:38:22;13.50;99.90
18083;DHT22;9168;51.194;6.840;2023-05-29T03:40:48;13.50;99.90
18083;DHT22;9168;51.194;6.840;2023-05-29T03:43:15;13.40;99.90
18083;DHT22;9168;51.194;6.840;2023-05-29T03:45:43;13.40;99.90
18083;DHT22;9168;51.194;6.840;2023-05-29T03:48:10;13.30;99.90
18083;DHT22;9168;51.194;6.840;2023-05-29T03:50:37;13.30;99.90
18083;DHT22;9168;51.194;6.840;2023-05-29T03:53:04;13.30;99.90
18083;DHT22;9168;51.194;6.840;2023-05-29T03:55:31;13.20;99.90
18083;DHT22;9168;51.194;6.840;2023-05-29T03:57:58;13.20;99.90
18083;DHT22;9168;51.194;6.840;2023-05-29T04:00:25;13.20;99.90
18083;DHT22;9168;51.194;6.840;2023-05-29T04:02:55;13.20;99.90
18083;DHT22;9168;51.194;6.840;2023-05-29T04:05:21;13.20;99.90
18083;DHT22;9168;51.194;6.840;2023-05-29T04:07:48;13.20;99.90
18083;DHT22;9168;51.194;6.840;2023-05-29T04:10:15;13.20;99.90
18083;DHT22;9168;51.194;6.840;2023-05-29T04:12:42;13.10;99.90
18083;DHT22;9168;51.194;6.840;2023-05-29T04:15:09;13.20;99.90
18083;DHT22;9168;51.194;6.840;2023-05-29T04:17:36;13.20;99.90
18083;DHT22;9168;51.194;6.840;2023-05-29T04:20:05;13.20;99.90
18083;DHT22;9168;51.194;6.840;2023-05-29T04:22:34;13.20;99.90
18083;DHT22;9168;51.194;6.840;2023-05-29T04:25:01;13.30;99.90
18083;DHT22;9168;51.194;6.840;2023-05-29T04:27:29;13.30;99.90
18083;DHT22;9168;51.194;6.840;2023-05-29T04:29:57;13.30;99.90
18083;DHT22;9168;51.194;6.840;2023-05-29T04:32:25;13.30;99.90
18083;DHT22;9168;51.194;6.840;2023-05-29T04:34:52;13.40;99.90
18083;DHT22;9168;51.194;6.840;2023-05-29T04:37:20;13.40;99.90
18083;DHT22;9168;51.194;6.840;2023-05-29T04:39:55;13.40;99.90
18083;DHT22;9168;51.194;6.840;2023-05-29T04:42:23;13.40;99.90
18083;DHT22;9168;51.194;6.840;2023-05-29T04:44:50;13.40;99.90
18083;DHT22;9168;51.194;6.840;2023-05-29T04:47:18;13.40;99.90
18083;DHT22;9168;51.194;6.840;2023-05-29T04:49:45;13.40;99.90
18083;DHT22;9168;51.194;6.840;2023-05-29T04:52:15;13.40;99.90
18083;DHT22;9168;51.194;6.840;2023-05-29T04:54:44;13.40;99.90
18083;DHT22;9168;51.194;6.840;2023-05-29T04:57:10;13.40;99.90
18083;DHT22;9168;51.194;6.840;2023-05-29T04:59:37;13.40;99.90
18083;DHT22;9168;51.194;6.840;2023-05-29T05:02:04;13.40;99.90
18083;DHT22;9168;51.194;6.840;2023-05-29T05:04:32;13.40;99.90
18083;DHT22;9168;51.194;6.840;2023-05-29T05:06:59;13.40;99.90
18083;DHT22;9168;51.194;6.840;2023-05-29T05:09:26;13.40;99.90
18083;DHT22;9168;51.194;6.840;2023-05-29T05:11:54;13.30;99.90
18083;DHT22;9168;51.194;6.840;2023-05-29T05:14:21;13.40;99.90
18083;DHT22;9168;51.194;6.840;2023-05-29T05:16:48;13.40;99.90
18083;DHT22;9168;51.194;6.840;2023-05-29T05:19:16;13.40;99.90
18083;DHT22;9168;51.194;6.840;2023-05-29T05:21:43;13.40;99.90
18083;DHT22;9168;51.194;6.840;2023-05-29T05:24:10;13.40;99.90
18083;DHT22;9168;51.194;6.840;2023-05-29T05:26:37;13.50;99.90
18083;DHT22;9168;51.194;6.840;2023-05-29T05:29:05;13.60;99.90
18083;DHT22;9168;51.194;6.840;2023-05-29T05:31:32;13.60;99.90
18083;DHT22;9168;51.194;6.840;2023-05-29T05:33:58;13.70;99.90
18083;DHT22;9168;51.194;6.840;2023-05-29T05:36:25;13.70;99.90
18083;DHT22;9168;51.194;6.840;2023-05-29T05:38:52;13.80;99.90
18083;DHT22;9168;51.194;6.840;2023-05-29T05:41:19;13.80;99.90
18083;DHT22;9168;51.194;6.840;2023-05-29T05:43:46;13.80;99.90
18083;DHT22;9168;51.194;6.840;2023-05-29T05:46:14;13.90;99.90
18083;DHT22;9168;51.194;6.840;2023-05-29T05:48:43;13.90;99.90
18083;DHT22;9168;51.194;6.840;2023-05-29T05:51:10;14.00;99.90
18083;DHT22;9168;51.194;6.840;2023-05-29T05:53:37;14.10;99.90
18083;DHT22;9168;51.194;6.840;2023-05-29T05:56:04;14.10;99.90
18083;DHT22;9168;51.194;6.840;2023-05-29T05:58:31;14.10;99.90
18083;DHT22;9168;51.194;6.840;2023-05-29T06:00:58;14.10;99.90
18083;DHT22;9168;51.194;6.840;2023-05-29T06:03:28;14.20;99.90
18083;DHT22;9168;51.194;6.840;2023-05-29T06:05:55;14.30;99.90
18083;DHT22;9168;51.194;6.840;2023-05-29T06:08:21;14.30;99.90
18083;DHT22;9168;51.194;6.840;2023-05-29T06:10:48;14.40;99.90
18083;DHT22;9168;51.194;6.840;2023-05-29T06:13:15;14.40;99.90
18083;DHT22;9168;51.194;6.840;2023-05-29T06:15:43;14.50;99.90
18083;DHT22;9168;51.194;6.840;2023-05-29T06:18:10;14.50;99.90
18083;DHT22;9168;51.194;6.840;2023-05-29T06:20:38;14.60;99.90
18083;DHT22;9168;51.194;6.840;2023-05-29T06:23:06;14.60;99.90
18083;DHT22;9168;51.194;6.840;2023-05-29T06:25:33;14.60;99.90
18083;DHT22;9168;51.194;6.840;2023-05-29T06:28:00;14.70;99.90
18083;DHT22;9168;51.194;6.840;2023-05-29T06:30:27;14.70;99.90
18083;DHT22;9168;51.194;6.840;2023-05-29T06:32:54;14.70;99.90
18083;DHT22;9168;51.194;6.840;2023-05-29T06:35:21;14.80;99.90
18083;DHT22;9168;51.194;6.840;2023-05-29T06:37:49;14.90;99.90
18083;DHT22;9168;51.194;6.840;2023-05-29T06:40:16;14.90;99.90
18083;DHT22;9168;51.194;6.840;2023-05-29T06:42:43;15.00;99.90
18083;DHT22;9168;51.194;6.840;2023-05-29T06:45:10;15.00;99.90
18083;DHT22;9168;51.194;6.840;2023-05-29T06:47:39;15.10;99.90
18083;DHT22;9168;51.194;6.840;2023-05-29T06:50:07;15.20;99.90
18083;DHT22;9168;51.194;6.840;2023-05-29T06:52:34;15.20;99.90
18083;DHT22;9168;51.194;6.840;2023-05-29T06:55:03;15.30;99.90
18083;DHT22;9168;51.194;6.840;2023-05-29T06:57:30;15.40;99.90
18083;DHT22;9168;51.194;6.840;2023-05-29T06:59:58;15.40;99.90
18083;DHT22;9168;51.194;6.840;2023-05-29T07:02:24;15.50;99.90
18083;DHT22;9168;51.194;6.840;2023-05-29T07:04:51;15.50;99.90
18083;DHT22;9168;51.194;6.840;2023-05-29T07:07:18;15.60;99.90
18083;DHT22;9168;51.194;6.840;2023-05-29T07:09:45;15.60;99.90
18083;DHT22;9168;51.194;6.840;2023-05-29T07:12:13;15.70;99.90
18083;DHT22;9168;51.194;6.840;2023-05-29T07:14:40;15.70;99.90
18083;DHT22;9168;51.194;6.840;2023-05-29T07:17:07;15.70;99.90
18083;DHT22;9168;51.194;6.840;2023-05-29T07:19:34;15.80;99.90
18083;DHT22;9168;51.194;6.840;2023-05-29T07:22:01;15.80;99.90
18083;DHT22;9168;51.194;6.840;2023-05-29T07:24:28;15.80;99.90
18083;DHT22;9168;51.194;6.840;2023-05-29T07:26:54;15.90;99.90
18083;DHT22;9168;51.194;6.840;2023-05-29T07:29:23;15.90;99.90
18083;DHT22;9168;51.194;6.840;2023-05-29T07:31:53;16.00;99.90
18083;DHT22;9168;51.194;6.840;2023-05-29T07:34:20;16.00;99.90
18083;DHT22;9168;51.194;6.840;2023-05-29T07:36:58;16.10;99.90
18083;DHT22;9168;51.194;6.840;2023-05-29T07:39:26;16.10;99.90
18083;DHT22;9168;51.194;6.840;2023-05-29T07:41:53;16.20;99.90
18083;DHT22;9168;51.194;6.840;2023-05-29T07:44:20;16.20;99.90
18083;DHT22;9168;51.194;6.840;2023-05-29T07:46:48;16.30;99.90
18083;DHT22;9168;51.194;6.840;2023-05-29T07:49:15;16.40;99.90
18083;DHT22;9168;51.194;6.840;2023-05-29T07:51:42;16.40;99.90
18083;DHT22;9168;51.194;6.840;2023-05-29T07:54:09;16.40;99.90
18083;DHT22;9168;51.194;6.840;2023-05-29T07:56:38;16.50;99.90
18083;DHT22;9168;51.194;6.840;2023-05-29T07:59:06;16.50;99.90
18083;DHT22;9168;51.194;6.840;2023-05-29T08:01:34;16.60;99.90
18083;DHT22;9168;51.194;6.840;2023-05-29T08:04:03;16.70;99.90
18083;DHT22;9168;51.194;6.840;2023-05-29T08:06:32;16.80;99.90
18083;DHT22;9168;51.194;6.840;2023-05-29T08:08:59;16.80;99.90
18083;DHT22;9168;51.194;6.840;2023-05-29T08:11:27;16.80;99.90
18083;DHT22;9168;51.194;6.840;2023-05-29T08:13:54;16.90;99.90
18083;DHT22;9168;51.194;6.840;2023-05-29T08:16:20;16.90;99.90
18083;DHT22;9168;51.194;6.840;2023-05-29T08:18:47;17.00;99.90
18083;DHT22;9168;51.194;6.840;2023-05-29T08:21:16;17.00;99.90
18083;DHT22;9168;51.194;6.840;2023-05-29T08:23:43;17.10;99.90
18083;DHT22;9168;51.194;6.840;2023-05-29T08:26:09;17.10;99.90
18083;DHT22;9168;51.194;6.840;2023-05-29T08:28:37;17.20;99.90
18083;DHT22;9168;51.194;6.840;2023-05-29T08:31:04;17.20;99.90
18083;DHT22;9168;51.194;6.840;2023-05-29T08:33:30;17.30;99.90
18083;DHT22;9168;51.194;6.840;2023-05-29T08:35:58;17.30;99.90
18083;DHT22;9168;51.194;6.840;2023-05-29T08:38:26;17.30;99.90
18083;DHT22;9168;51.194;6.840;2023-05-29T08:40:56;17.40;99.90
18083;DHT22;9168;51.194;6.840;2023-05-29T08:43:23;17.50;99.90
18083;DHT22;9168;51.194;6.840;2023-05-29T08:45:53;17.60;99.90
18083;DHT22;9168;51.194;6.840;2023-05-29T08:48:23;17.60;99.90
18083;DHT22;9168;51.194;6.840;2023-05-29T08:50:53;17.70;99.90
18083;DHT22;9168;51.194;6.840;2023-05-29T08:53:20;17.70;99.90
18083;DHT22;9168;51.194;6.840;2023-05-29T08:55:50;17.80;99.90
18083;DHT22;9168;51.194;6.840;2023-05-29T08:58:18;17.80;99.90
18083;DHT22;9168;51.194;6.840;2023-05-29T09:00:47;17.90;99.90
18083;DHT22;9168;51.194;6.840;2023-05-29T09:03:14;18.00;99.90
18083;DHT22;9168;51.194;6.840;2023-05-29T09:05:44;18.10;99.90
18083;DHT22;9168;51.194;6.840;2023-05-29T09:08:12;18.20;99.90
18083;DHT22;9168;51.194;6.840;2023-05-29T09:10:41;18.20;99.90
18083;DHT22;9168;51.194;6.840;2023-05-29T09:13:10;18.30;99.90
18083;DHT22;9168;51.194;6.840;2023-05-29T09:15:39;18.40;99.90
18083;DHT22;9168;51.194;6.840;2023-05-29T09:18:08;18.50;99.90
18083;DHT22;9168;51.194;6.840;2023-05-29T09:20:35;18.60;99.90
18083;DHT22;9168;51.194;6.840;2023-05-29T09:23:04;18.60;99.90
18083;DHT22;9168;51.194;6.840;2023-05-29T09:25:33;18.70;99.90
18083;DHT22;9168;51.194;6.840;2023-05-29T09:28:03;18.70;99.90
18083;DHT22;9168;51.194;6.840;2023-05-29T09:30:35;18.80;99.90
18083;DHT22;9168;51.194;6.840;2023-05-29T09:33:02;18.80;99.90
18083;DHT22;9168;51.194;6.840;2023-05-29T09:35:34;18.80;99.90
18083;DHT22;9168;51.194;6.840;2023-05-29T09:38:01;18.90;99.90
18083;DHT22;9168;51.194;6.840;2023-05-29T09:40:30;19.00;99.90
18083;DHT22;9168;51.194;6.840;2023-05-29T09:43:02;19.10;99.90
18083;DHT22;9168;51.194;6.840;2023-05-29T09:45:32;19.20;99.90
18083;DHT22;9168;51.194;6.840;2023-05-29T09:47:59;19.30;99.90
18083;DHT22;9168;51.194;6.840;2023-05-29T09:50:26;19.40;99.90
18083;DHT22;9168;51.194;6.840;2023-05-29T09:52:54;19.50;99.90
18083;DHT22;9168;51.194;6.840;2023-05-29T09:55:21;19.60;99.90
18083;DHT22;9168;51.194;6.840;2023-05-29T09:57:53;19.70;99.90
18083;DHT22;9168;51.194;6.840;2023-05-29T10:00:20;19.70;99.90
18083;DHT22;9168;51.194;6.840;2023-05-29T10:02:49;19.90;99.90
18083;DHT22;9168;51.194;6.840;2023-05-29T10:05:16;20.00;99.90
18083;DHT22;9168;51.194;6.840;2023-05-29T10:07:44;20.10;99.90
18083;DHT22;9168;51.194;6.840;2023-05-29T10:10:14;20.20;99.90
18083;DHT22;9168;51.194;6.840;2023-05-29T10:12:44;20.50;99.90
18083;DHT22;9168;51.194;6.840;2023-05-29T10:15:12;20.60;99.90
18083;DHT22;9168;51.194;6.840;2023-05-29T10:17:47;20.90;99.90
18083;DHT22;9168;51.194;6.840;2023-05-29T10:20:17;21.10;99.90
18083;DHT22;9168;51.194;6.840;2023-05-29T10:22:49;21.30;99.90
18083;DHT22;9168;51.194;6.840;2023-05-29T10:25:19;21.60;99.90
18083;DHT22;9168;51.194;6.840;2023-05-29T10:27:47;21.80;99.90
18083;DHT22;9168;51.194;6.840;2023-05-29T10:30:22;22.10;99.90
18083;DHT22;9168;51.194;6.840;2023-05-29T10:33:20;22.30;99.90
18083;DHT22;9168;51.194;6.840;2023-05-29T10:35:55;22.80;99.90
18083;DHT22;9168;51.194;6.840;2023-05-29T10:38:27;23.10;99.90
18083;DHT22;9168;51.194;6.840;2023-05-29T10:40:54;23.60;99.90
18083;DHT22;9168;51.194;6.840;2023-05-29T10:43:30;24.00;99.90
18083;DHT22;9168;51.194;6.840;2023-05-29T10:45:58;24.30;99.90
18083;DHT22;9168;51.194;6.840;2023-05-29T10:48:41;24.70;99.90
18083;DHT22;9168;51.194;6.840;2023-05-29T10:51:24;25.00;99.90
18083;DHT22;9168;51.194;6.840;2023-05-29T10:53:51;25.20;99.90
18083;DHT22;9168;51.194;6.840;2023-05-29T10:56:23;25.20;99.90
18083;DHT22;9168;51.194;6.840;2023-05-29T10:58:55;25.30;99.90
18083;DHT22;9168;51.194;6.840;2023-05-29T11:01:23;25.40;99.90
18083;DHT22;9168;51.194;6.840;2023-05-29T11:03:51;25.40;99.90
18083;DHT22;9168;51.194;6.840;2023-05-29T11:06:21;25.40;99.90
18083;DHT22;9168;51.194;6.840;2023-05-29T11:08:54;25.70;99.90
18083;DHT22;9168;51.194;6.840;2023-05-29T11:11:31;25.70;99.90
18083;DHT22;9168;51.194;6.840;2023-05-29T11:14:02;25.60;99.90
18083;DHT22;9168;51.194;6.840;2023-05-29T11:16:36;25.70;99.90
18083;DHT22;9168;51.194;6.840;2023-05-29T11:19:05;25.80;99.90
18083;DHT22;9168;51.194;6.840;2023-05-29T11:21:44;26.10;99.90
18083;DHT22;9168;51.194;6.840;2023-05-29T11:24:20;26.20;99.90
18083;DHT22;9168;51.194;6.840;2023-05-29T11:26:47;26.30;99.90
18083;DHT22;9168;51.194;6.840;2023-05-29T11:29:14;26.40;99.90
18083;DHT22;9168;51.194;6.840;2023-05-29T11:31:43;26.40;99.90
18083;DHT22;9168;51.194;6.840;2023-05-29T11:34:14;26.50;99.90
18083;DHT22;9168;51.194;6.840;2023-05-29T11:36:43;26.60;99.90
18083;DHT22;9168;51.194;6.840;2023-05-29T11:39:11;26.70;99.90
18083;DHT22;9168;51.194;6.840;2023-05-29T11:41:37;26.70;99.90
18083;DHT22;9168;51.194;6.840;2023-05-29T11:44:04;26.60;99.90
18083;DHT22;9168;51.194;6.840;2023-05-29T11:46:32;26.60;99.90
18083;DHT22;9168;51.194;6.840;2023-05-29T11:49:01;26.60;99.90
18083;DHT22;9168;51.194;6.840;2023-05-29T11:51:28;26.50;99.90
18083;DHT22;9168;51.194;6.840;2023-05-29T11:53:56;26.50;99.90
18083;DHT22;9168;51.194;6.840;2023-05-29T11:56:24;26.60;99.90
18083;DHT22;9168;51.194;6.840;2023-05-29T11:58:52;26.70;99.90
18083;DHT22;9168;51.194;6.840;2023-05-29T12:01:22;26.70;99.90
18083;DHT22;9168;51.194;6.840;2023-05-29T12:03:50;26.70;99.90
18083;DHT22;9168;51.194;6.840;2023-05-29T12:06:30;26.70;99.80
18083;DHT22;9168;51.194;6.840;2023-05-29T12:09:00;26.80;99.80
18083;DHT22;9168;51.194;6.840;2023-05-29T12:11:28;27.00;99.90
18083;DHT22;9168;51.194;6.840;2023-05-29T12:13:56;27.20;99.90
18083;DHT22;9168;51.194;6.840;2023-05-29T12:16:23;27.30;99.90
18083;DHT22;9168;51.194;6.840;2023-05-29T12:18:51;27.40;99.30
18083;DHT22;9168;51.194;6.840;2023-05-29T12:21:20;27.40;98.90
18083;DHT22;9168;51.194;6.840;2023-05-29T12:23:47;27.20;98.40
18083;DHT22;9168;51.194;6.840;2023-05-29T12:26:16;27.10;99.40
18083;DHT22;9168;51.194;6.840;2023-05-29T12:28:44;27.10;99.80
18083;DHT22;9168;51.194;6.840;2023-05-29T12:31:11;27.10;99.30
18083;DHT22;9168;51.194;6.840;2023-05-29T12:33:43;27.30;98.70
18083;DHT22;9168;51.194;6.840;2023-05-29T12:36:12;27.40;98.30
18083;DHT22;9168;51.194;6.840;2023-05-29T12:38:46;27.40;98.50
18083;DHT22;9168;51.194;6.840;2023-05-29T12:41:24;27.40;98.50
18083;DHT22;9168;51.194;6.840;2023-05-29T12:43:53;27.50;98.80
18083;DHT22;9168;51.194;6.840;2023-05-29T12:46:20;27.50;98.00
18083;DHT22;9168;51.194;6.840;2023-05-29T12:48:47;27.50;97.20
18083;DHT22;9168;51.194;6.840;2023-05-29T12:51:15;27.60;97.90
18083;DHT22;9168;51.194;6.840;2023-05-29T12:53:44;27.60;97.80
18083;DHT22;9168;51.194;6.840;2023-05-29T12:56:11;27.60;96.80
18083;DHT22;9168;51.194;6.840;2023-05-29T12:58:39;27.60;97.20
18083;DHT22;9168;51.194;6.840;2023-05-29T13:01:12;27.70;97.10
18083;DHT22;9168;51.194;6.840;2023-05-29T13:03:39;27.70;97.60
18083;DHT22;9168;51.194;6.840;2023-05-29T13:06:06;27.70;97.90
18083;DHT22;9168;51.194;6.840;2023-05-29T13:08:34;27.80;96.70
18083;DHT22;9168;51.194;6.840;2023-05-29T13:11:01;27.90;96.70
18083;DHT22;9168;51.194;6.840;2023-05-29T13:13:27;27.90;96.40
18083;DHT22;9168;51.194;6.840;2023-05-29T13:15:56;27.90;96.60
18083;DHT22;9168;51.194;6.840;2023-05-29T13:18:23;27.80;96.30
18083;DHT22;9168;51.194;6.840;2023-05-29T13:20:49;27.70;96.70
18083;DHT22;9168;51.194;6.840;2023-05-29T13:23:16;27.70;96.40
18083;DHT22;9168;51.194;6.840;2023-05-29T13:25:43;27.70;96.90
18083;DHT22;9168;51.194;6.840;2023-05-29T13:28:11;27.60;96.50
18083;DHT22;9168;51.194;6.840;2023-05-29T13:30:38;27.50;96.50
18083;DHT22;9168;51.194;6.840;2023-05-29T13:33:06;27.40;96.30
18083;DHT22;9168;51.194;6.840;2023-05-29T13:35:33;27.40;95.70
18083;DHT22;9168;51.194;6.840;2023-05-29T13:38:00;27.30;96.50
18083;DHT22;9168;51.194;6.840;2023-05-29T13:40:27;27.20;96.90
18083;DHT22;9168;51.194;6.840;2023-05-29T13:42:54;27.10;97.20
18083;DHT22;9168;51.194;6.840;2023-05-29T13:45:21;27.00;96.50
18083;DHT22;9168;51.194;6.840;2023-05-29T13:47:47;26.90;97.40
18083;DHT22;9168;51.194;6.840;2023-05-29T13:50:16;26.80;97.60
18083;DHT22;9168;51.194;6.840;2023-05-29T13:52:42;26.80;97.50
18083;DHT22;9168;51.194;6.840;2023-05-29T13:55:09;26.70;96.30
18083;DHT22;9168;51.194;6.840;2023-05-29T13:57:36;26.50;96.60
18083;DHT22;9168;51.194;6.840;2023-05-29T14:00:06;26.40;97.00
18083;DHT22;9168;51.194;6.840;2023-05-29T14:02:33;26.40;97.90
18083;DHT22;9168;51.194;6.840;2023-05-29T14:05:00;26.30;97.20
18083;DHT22;9168;51.194;6.840;2023-05-29T14:07:28;26.30;97.30
18083;DHT22;9168;51.194;6.840;2023-05-29T14:09:55;26.20;97.80
18083;DHT22;9168;51.194;6.840;2023-05-29T14:12:22;26.20;98.20
18083;DHT22;9168;51.194;6.840;2023-05-29T14:14:49;26.10;97.20
18083;DHT22;9168;51.194;6.840;2023-05-29T14:17:15;26.10;96.80
18083;DHT22;9168;51.194;6.840;2023-05-29T14:19:42;26.10;97.30
18083;DHT22;9168;51.194;6.840;2023-05-29T14:22:11;26.00;97.50
18083;DHT22;9168;51.194;6.840;2023-05-29T14:24:39;25.80;98.00
18083;DHT22;9168;51.194;6.840;2023-05-29T14:27:06;25.80;97.00
18083;DHT22;9168;51.194;6.840;2023-05-29T14:29:33;25.70;96.70
18083;DHT22;9168;51.194;6.840;2023-05-29T14:32:00;25.60;97.80
18083;DHT22;9168;51.194;6.840;2023-05-29T14:34:27;25.30;97.80
18083;DHT22;9168;51.194;6.840;2023-05-29T14:36:53;25.10;96.40
18083;DHT22;9168;51.194;6.840;2023-05-29T14:39:20;25.00;97.80
18083;DHT22;9168;51.194;6.840;2023-05-29T14:41:49;24.90;97.80
18083;DHT22;9168;51.194;6.840;2023-05-29T14:44:15;24.80;97.70
18083;DHT22;9168;51.194;6.840;2023-05-29T14:46:42;24.70;98.40
18083;DHT22;9168;51.194;6.840;2023-05-29T14:49:09;24.50;98.90
18083;DHT22;9168;51.194;6.840;2023-05-29T14:51:36;24.30;99.90
18083;DHT22;9168;51.194;6.840;2023-05-29T14:54:04;24.30;99.80
18083;DHT22;9168;51.194;6.840;2023-05-29T14:56:31;24.20;99.90
18083;DHT22;9168;51.194;6.840;2023-05-29T14:58:59;24.10;99.90
18083;DHT22;9168;51.194;6.840;2023-05-29T15:01:26;24.10;99.90
18083;DHT22;9168;51.194;6.840;2023-05-29T15:03:53;24.10;99.60
18083;DHT22;9168;51.194;6.840;2023-05-29T15:06:20;24.10;99.80
18083;DHT22;9168;51.194;6.840;2023-05-29T15:08:48;24.10;99.90
18083;DHT22;9168;51.194;6.840;2023-05-29T15:11:16;24.00;99.40
18083;DHT22;9168;51.194;6.840;2023-05-29T15:13:45;24.00;99.80
18083;DHT22;9168;51.194;6.840;2023-05-29T15:16:13;23.90;99.50
18083;DHT22;9168;51.194;6.840;2023-05-29T15:18:40;23.90;99.90
18083;DHT22;9168;51.194;6.840;2023-05-29T15:21:07;23.80;99.80
18083;DHT22;9168;51.194;6.840;2023-05-29T15:23:34;23.90;99.90
18083;DHT22;9168;51.194;6.840;2023-05-29T15:26:01;23.90;99.80
18083;DHT22;9168;51.194;6.840;2023-05-29T15:28:28;23.90;99.30
18083;DHT22;9168;51.194;6.840;2023-05-29T15:30:55;23.90;99.70
18083;DHT22;9168;51.194;6.840;2023-05-29T15:33:24;23.90;99.50
18083;DHT22;9168;51.194;6.840;2023-05-29T15:35:51;23.80;99.40
18083;DHT22;9168;51.194;6.840;2023-05-29T15:38:17;23.80;99.70
18083;DHT22;9168;51.194;6.840;2023-05-29T15:40:44;23.80;99.30
18083;DHT22;9168;51.194;6.840;2023-05-29T15:43:11;23.70;98.70
18083;DHT22;9168;51.194;6.840;2023-05-29T15:45:38;23.60;98.50
18083;DHT22;9168;51.194;6.840;2023-05-29T15:48:06;23.60;98.60
18083;DHT22;9168;51.194;6.840;2023-05-29T15:50:34;23.50;98.70